Information Last Ob Photographs Calibration Meteogram Network Table Neighbors 7 Day High/Low Plot Month High/Low Plot Month Rainfall Plot Observation History Wind Roses Custom Wind Roses Data Calendar Download

02 January 2018 Observation History, [DSM] DES MOINES, timezone: America/Chicago

Select Date:
Show MetarsPrevious DayNext Day
Time Wind
(mph)
Vis.
(mi.)
Sky Cond.
(100s ft)
Present Wx Temperature (ºF) Relative
Humidity
Pressure Precipitation (in.)
Air Dwpt Feels Like 6 hour altimeter
(in.)
sea level
(mb)
1 hr 3 hr 6 hr
Max.Min.
11:55 PMW 1410 BKN030
OVC055
% 30.06
KDSM 030555Z AUTO 28012KT 10SM BKN030 OVC055 M07/M11 A3006 RMK T10701110 MADISHF
11:54 PMW 1310 BKN030
OVC055
20127 21 13 71% 30.071019.900.0001
KDSM 030554Z 27011KT 10SM BKN030 OVC055 M07/M11 A3007 RMK AO2 SLP199 4/003 60000 T10671111 11061 21106 410611261 56016
11:50 PMW 1410 BKN030
OVC055
% 30.06
KDSM 030550Z AUTO 27012KT 10SM BKN030 OVC055 M07/M11 A3006 RMK T10701110 4/003 MADISHF
11:45 PMM10 SCT032
OVC055
% 30.07
KDSM 030545Z AUTO /////KT 10SM SCT032 OVC055 M06/M12 A3007 RMK T10601120 4/003 MADISHF
11:40 PMM10 FEW032
OVC055
% 30.06
KDSM 030540Z AUTO /////KT 10SM FEW032 OVC055 M06/M12 A3006 RMK T10601120 4/003 MADISHF
11:35 PMW 1410 FEW032
OVC060
% 30.07
KDSM 030535Z AUTO 26012KT 10SM FEW032 OVC060 M06/M12 A3007 RMK T10601120 MADISHF
11:30 PMM10 OVC060
% 30.07
KDSM 030530Z AUTO /////KT 10SM OVC060 M07/M12 A3007 RMK T10701120 MADISHF
11:25 PMW 1310 OVC060
% 30.07
KDSM 030525Z AUTO 27011KT 10SM OVC060 M07/M12 A3007 RMK T10701120 MADISHF
11:20 PMW 1410 OVC060
% 30.07
KDSM 030520Z AUTO 26012KT 10SM OVC060 M07/M12 A3007 RMK T10701120 MADISHF
11:15 PMM10 OVC060
% 30.06
KDSM 030515Z AUTO /////KT 10SM OVC060 M07/M12 A3006 RMK T10701120 MADISHF
11:10 PMM10 OVC060
% 30.07
KDSM 030510Z AUTO /////KT 10SM OVC060 M07/M12 A3007 RMK T10701120 MADISHF
11:05 PMM10 OVC060
% 30.06
KDSM 030505Z AUTO /////KT 10SM OVC060 M07/M12 A3006 RMK T10701120 MADISHF
11:00 PMWSW 1510 OVC060
% 30.06
KDSM 030500Z AUTO 25013KT 10SM OVC060 M07/M12 A3006 RMK T10701120 MADISHF
10:55 PMWSW 1510 OVC060
% 30.07
KDSM 030455Z AUTO 25013KT 10SM OVC060 M07/M12 A3007 RMK T10701120 MADISHF
10:54 PMW 1610 OVC060
20106 65% 30.0710200
KDSM 030454Z 26014KT 10SM OVC060 M07/M12 A3007 RMK AO2 SLP200 T10671122
10:50 PMM10 OVC060
% 30.07
KDSM 030450Z AUTO /////KT 10SM OVC060 M07/M12 A3007 RMK T10701120 MADISHF
10:45 PMWSW 1610 OVC060
% 30.07
KDSM 030445Z AUTO 25014KT 10SM OVC060 M07/M13 A3007 RMK T10701130 MADISHF
10:40 PMWSW 1610 BKN060
% 30.07
KDSM 030440Z AUTO 25014KT 10SM BKN060 M07/M13 A3007 RMK T10701130 MADISHF
10:35 PMWSW 1410 FEW048
BKN060
% 30.07
KDSM 030435Z AUTO 25012KT 10SM FEW048 BKN060 M07/M13 A3007 RMK T10701130 MADISHF
10:30 PMWSW 1610 BKN060
% 30.07
KDSM 030430Z AUTO 25014KT 10SM BKN060 M07/M13 A3007 RMK T10701130 MADISHF
10:25 PMM9 BKN060
% 30.07
KDSM 030425Z AUTO /////KT 9SM BKN060 M07/M13 A3007 RMK T10701130 MADISHF
10:20 PMM9 BKN060
% 30.07
KDSM 030420Z AUTO /////KT 9SM BKN060 M07/M13 A3007 RMK T10701130 MADISHF
10:15 PMM10 BKN060
% 30.07
KDSM 030415Z AUTO /////KT 10SM BKN060 M07/M13 A3007 RMK T10701130 MADISHF
10:10 PMM10 FEW043
OVC060
% 30.08
KDSM 030410Z AUTO /////KT 10SM FEW043 OVC060 M07/M12 A3008 RMK T10701120 MADISHF
10:05 PMWSW 1610 SCT043
OVC060
% 30.08
KDSM 030405Z AUTO 25014KT 10SM SCT043 OVC060 M07/M12 A3008 RMK T10701120 MADISHF
10:00 PMWSW 1610 SCT043
OVC060
% 30.08
KDSM 030400Z AUTO 25014KT 10SM SCT043 OVC060 M07/M12 A3008 RMK T10701120 MADISHF
9:55 PMWSW 1610 BKN043
OVC060
% 30.08
KDSM 030355Z AUTO 24014KT 10SM BKN043 OVC060 M07/M12 A3008 RMK T10701120 MADISHF
9:54 PMWSW 1510 BKN043
OVC060
19105 67% 30.081020.70.0001
KDSM 030354Z 24013KT 10SM BKN043 OVC060 M07/M12 A3008 RMK AO2 SNE21 SLP207 P0000 T10721122
9:50 PMWSW 1310 BKN043
OVC060
% 30.08
KDSM 030350Z AUTO 24011KT 10SM BKN043 OVC060 M07/M12 A3008 RMK T10701120 MADISHF
9:45 PMWSW 1310 BKN043
OVC065
% 30.08
KDSM 030345Z AUTO 24011KT 10SM BKN043 OVC065 M07/M12 A3008 RMK T10701120 DRSN MADISHF
9:40 PMWSW 1410 BKN041
OVC065
% 30.09
KDSM 030340Z AUTO 25012KT 10SM BKN041 OVC065 M08/M12 A3009 RMK T10801120 DRSN MADISHF
9:35 PMWSW 159 FEW006
BKN041
OVC065
% 30.09
KDSM 030335Z AUTO 24013KT 9SM FEW006 BKN041 OVC065 M08/M12 A3009 RMK T10801120 DRSN MADISHF
9:30 PMWSW 1610 FEW008
BKN039
OVC065
% 30.09
KDSM 030330Z AUTO 24014KT 10SM FEW008 BKN039 OVC065 M08/M11 A3009 RMK T10801110 DRSN MADISHF
9:25 PMWSW 1610 SCT008
BKN038
OVC065
18123 77% 30.090.0001
KDSM 030325Z 24014KT 10SM SCT008 BKN038 OVC065 M08/M11 A3009 RMK AO2 SNE21 DRSN P0000 T10781111
9:20 PMM6 SCT009
BKN036
OVC065
{-SN} % 30.09
KDSM 030320Z AUTO /////KT 6SM -SN SCT009 BKN036 OVC065 M08/M12 A3009 RMK T10801120 DRSN MADISHF
9:16 PMWSW 166 BKN012
BKN036
OVC065
{-SN}17112 76% 30.10.0001
KDSM 030316Z 24014KT 6SM -SN BKN012 BKN036 OVC065 M08/M12 A3010 RMK AO2 DRSN P0000 T10831117
9:15 PMWSW 176 BKN012
OVC036
{-SN} % 30.1
KDSM 030315Z AUTO 24015KT 6SM -SN BKN012 OVC036 M08/M12 A3010 RMK T10801120 DRSN MADISHF
9:13 PMWSW 171.5 BKN012
OVC036
{-SN,BLSN}17112 76% 30.10.0001
KDSM 030313Z 24015KT 1 1/2SM R31/6000VP6000FT -SN BLSN BKN012 OVC036 M08/M12 A3010 RMK AO2 P0000 T10831117
9:10 PMWSW 181 VV 012
{-SN} % 30.1
KDSM 030310Z AUTO 24016KT 1SM -SN VV012 M08/M12 A3010 RMK T10801120 MADISHF
9:06 PMWSW 180.75 VV 013
{-SN,BLSN}17101 73% 30.110.0001
KDSM 030306Z 24016KT 3/4SM R31/6000VP6000FT -SN BLSN VV013 M08/M12 A3011 RMK AO2 P0000 T10831122
9:05 PMWSW 17G 230.75 VV 013
{-SN} % 30.11
KDSM 030305Z AUTO 25015G20KT 1SM -SN VV013 M08/M12 A3011 RMK T10801120 MADISHF
9:02 PMWSW 140.75 VV 015
{-SN,BLSN}1793 70% 30.110.0001
KDSM 030302Z 25012KT 3/4SM R31/P6000FT -SN BLSN VV015 M08/M13 A3011 RMK AO2 SFC VIS 1 P0000 T10831128
9:00 PMWSW 161 VV 016
{-SN} % 30.11
KDSM 030300Z AUTO 25014KT 1SM -SN VV016 M08/M13 A3011 RMK T10801130 MADISHF
8:55 PMM1.75 OVC019
{-SN} % 30.11
KDSM 030255Z AUTO /////KT 2SM -SN OVC019 M08/M13 A3011 RMK T10801130 MADISHF
8:54 PMWSW 22G 281.75 OVC023
{-SN,BLSN}1891 67% 30.111021.90.00010.0001
KDSM 030254Z 25019G24KT 1 3/4SM -SN BLSN OVC023 M08/M13 A3011 RMK AO2 PK WND 24027/0240 TWR VIS 2 SNB35 SLP219 P0000 60000 T10781128 56023
8:52 PMWSW 21G 282 OVC025
{-SN,BLSN}1891 67% 30.120.0001
KDSM 030252Z 24018G24KT 2SM -SN BLSN OVC025 M08/M13 A3012 RMK AO2 PK WND 24027/0240 SNB35 P0000
8:50 PMWSW 202 OVC025
{-SN} % 30.12
KDSM 030250Z AUTO 24017KT 2SM -SN OVC025 M08/M13 A3012 RMK T10801130 DRSN MADISHF
8:45 PMM3 BKN031
OVC070
{-SN} % 30.12
KDSM 030245Z AUTO /////KT 3SM -SN BKN031 OVC070 M08/M14 A3012 RMK T10801140 MADISHF
8:40 PMM8 BKN031
OVC070
{-SN} % 30.12
KDSM 030240Z AUTO /////KT 8SM -SN BKN031 OVC070 M08/M14 A3012 RMK T10801140 MADISHF
8:35 PMWSW 1710 BKN035
OVC070
{-SN} % 30.12
KDSM 030235Z AUTO 24015KT 10SM -SN BKN035 OVC070 M08/M14 A3012 RMK T10801140 MADISHF
8:30 PMM10 SCT043
BKN070
OVC085
% 30.13
KDSM 030230Z AUTO /////KT 10SM SCT043 BKN070 OVC085 M08/M14 A3013 RMK T10801140 MADISHF
8:25 PMWSW 1710 BKN065
OVC090
% 30.13
KDSM 030225Z AUTO 24015KT 10SM BKN065 OVC090 M08/M14 A3013 RMK T10801140 MADISHF
8:20 PMM10 BKN070
BKN085
BKN110
% 30.13
KDSM 030220Z AUTO /////KT 10SM BKN070 BKN085 BKN110 M08/M14 A3013 RMK T10801140 MADISHF
8:15 PMWSW 1810 SCT065
SCT079
BKN095
% 30.13
KDSM 030215Z AUTO 24016KT 10SM SCT065 SCT079 BKN095 M08/M15 A3013 RMK T10801150 MADISHF
8:10 PMWSW 1710 FEW070
SCT090
BKN110
% 30.14
KDSM 030210Z AUTO 24015KT 10SM FEW070 SCT090 BKN110 M08/M15 A3014 RMK T10801150 MADISHF
8:05 PMSW 2110 FEW090
SCT110
% 30.12
KDSM 030205Z AUTO 23018KT 10SM FEW090 SCT110 M08/M15 A3012 RMK T10801150 MADISHF
8:00 PMM10 FEW110
% 30.12
KDSM 030200Z AUTO /////KT 10SM FEW110 M08/M16 A3012 RMK T10801160 MADISHF
7:55 PMSW 1710 CLR
% 30.13
KDSM 030155Z AUTO 23015KT 10SM CLR M08/M16 A3013 RMK T10801160 MADISHF
7:54 PMSW 20G 2610 FEW050
OVC140
1741 56% 30.131022.60
KDSM 030154Z 23017G23KT 10SM FEW050 OVC140 M08/M16 A3013 RMK AO2 SLP226 T10831156
7:50 PMSW 1810 CLR
% 30.13
KDSM 030150Z AUTO 23016KT 10SM CLR M09/M16 A3013 RMK T10901160 MADISHF
7:45 PMM10 CLR
% 30.14
KDSM 030145Z AUTO /////KT 10SM CLR M09/M16 A3014 RMK T10901160 MADISHF
7:40 PMSW 1710 CLR
% 30.14
KDSM 030140Z AUTO 23015KT 10SM CLR M09/M16 A3014 RMK T10901160 MADISHF
7:35 PMM10 CLR
% 30.14
KDSM 030135Z AUTO /////KT 10SM CLR M09/M16 A3014 RMK T10901160 MADISHF
7:30 PMM10 CLR
% 30.15
KDSM 030130Z AUTO /////KT 10SM CLR M09/M16 A3015 RMK T10901160 MADISHF
7:25 PMSW 1610 CLR
% 30.16
KDSM 030125Z AUTO 22014KT 10SM CLR M09/M16 A3016 RMK T10901160 MADISHF
7:20 PMSW 1510 CLR
% 30.17
KDSM 030120Z AUTO 22013KT 10SM CLR M09/M16 A3017 RMK T10901160 MADISHF
7:15 PMSW 1310 CLR
% 30.17
KDSM 030115Z AUTO 22011KT 10SM CLR M09/M16 A3017 RMK T10901160 MADISHF
7:10 PMSW 1610 CLR
% 30.17
KDSM 030110Z AUTO 22014KT 10SM CLR M09/M16 A3017 RMK T10901160 MADISHF
7:05 PMSW 1510 CLR
% 30.18
KDSM 030105Z AUTO 22013KT 10SM CLR M09/M16 A3018 RMK T10901160 MADISHF
7:00 PMSW 1710 CLR
% 30.18
KDSM 030100Z AUTO 23015KT 10SM CLR M09/M16 A3018 RMK T10901160 MADISHF
6:55 PMSW 1610 CLR
% 30.18
KDSM 030055Z AUTO 23014KT 10SM CLR M10/M16 A3018 RMK T11001160 MADISHF
6:54 PMSW 1510 OVC200
143-1 61% 30.181024.60
KDSM 030054Z 23013KT 10SM OVC200 M10/M16 A3018 RMK AO2 SLP246 T11001161
6:50 PMSW 1710 CLR
% 30.18
KDSM 030050Z AUTO 22015KT 10SM CLR M10/M17 A3018 RMK T11001170 MADISHF
6:45 PMSW 1710 CLR
% 30.18
KDSM 030045Z AUTO 22015KT 10SM CLR M10/M17 A3018 RMK T11001170 MADISHF
6:40 PMSW 1610 CLR
% 30.18
KDSM 030040Z AUTO 22014KT 10SM CLR M10/M17 A3018 RMK T11001170 MADISHF
6:35 PMSW 1610 CLR
% 30.19
KDSM 030035Z AUTO 23014KT 10SM CLR M10/M17 A3019 RMK T11001170 MADISHF
6:30 PMSW 1610 CLR
% 30.19
KDSM 030030Z AUTO 22014KT 10SM CLR M10/M17 A3019 RMK T11001170 MADISHF
6:25 PMSW 16G 2210 CLR
% 30.2
KDSM 030025Z AUTO 23014G19KT 10SM CLR M10/M17 A3020 RMK T11001170 MADISHF
6:20 PMSW 1610 CLR
% 30.2
KDSM 030020Z AUTO 23014KT 10SM CLR M10/M17 A3020 RMK T11001170 MADISHF
6:15 PMSW 1010 CLR
% 30.2
KDSM 030015Z AUTO 22009KT 10SM CLR M10/M17 A3020 RMK T11001170 MADISHF
6:10 PMSW 1310 CLR
% 30.2
KDSM 030010Z AUTO 22011KT 10SM CLR M11/M17 A3020 RMK T11101170 MADISHF
6:05 PMSSW 1510 CLR
% 30.18
KDSM 030005Z AUTO 20013KT 10SM CLR M11/M17 A3018 RMK T11101170 MADISHF
6:00 PMSSW 1610 CLR
% 30.2
KDSM 030000Z AUTO 21014KT 10SM CLR M11/M17 A3020 RMK T11101170 MADISHF
5:55 PMSSW 1610 CLR
% 30.2
KDSM 022355Z AUTO 21014KT 10SM CLR M11/M18 A3020 RMK T11101180 MADISHF
5:54 PMSSW 1710 OVC200
130-4 14 8 56% 30.21025.10
KDSM 022354Z 21015KT 10SM OVC200 M11/M18 A3020 RMK AO2 SLP251 4/003 T11061178 11100 21133 58045
5:50 PMSSW 1610 CLR
% 30.2
KDSM 022350Z AUTO 21014KT 10SM CLR M11/M18 A3020 RMK T11101180 4/003 MADISHF
5:45 PMSSW 1310 CLR
% 30.2
KDSM 022345Z AUTO 21011KT 10SM CLR M11/M18 A3020 RMK T11101180 4/003 MADISHF
5:40 PMM10 CLR
% 30.2
KDSM 022340Z AUTO /////KT 10SM CLR M11/M18 A3020 RMK T11101180 4/003 MADISHF
5:35 PMSSW 14G 2010 CLR
% 30.21
KDSM 022335Z AUTO 21012G17KT 10SM CLR M11/M18 A3021 RMK T11101180 4/003 MADISHF
5:30 PMSSW 1410 CLR
% 30.22
KDSM 022330Z AUTO 21012KT 10SM CLR M11/M18 A3022 RMK T11101180 4/003 MADISHF
5:25 PMM10 CLR
% 30.22
KDSM 022325Z AUTO /////KT 10SM CLR M11/M18 A3022 RMK T11101180 4/003 MADISHF
5:20 PMM10 CLR
% 30.22
KDSM 022320Z AUTO /////G19KT 10SM CLR M11/M18 A3022 RMK T11101180 4/003 MADISHF
5:15 PMM10 CLR
% 30.23
KDSM 022315Z AUTO /////KT 10SM CLR M11/M18 A3023 RMK T11101180 4/003 MADISHF
5:10 PMM10 CLR
% 30.23
KDSM 022310Z AUTO /////KT 10SM CLR M11/M18 A3023 RMK T11101180 4/003 MADISHF
5:05 PMM10 CLR
% 30.23
KDSM 022305Z AUTO /////KT 10SM CLR M11/M18 A3023 RMK T11101180 4/003 MADISHF
5:00 PMM10 CLR
% 30.24
KDSM 022300Z AUTO /////KT 10SM CLR M11/M18 A3024 RMK T11101180 4/003 MADISHF
4:55 PMSSW 1810 CLR
% 30.24
KDSM 022255Z AUTO 21016KT 10SM CLR M11/M18 A3024 RMK T11101180 MADISHF
4:54 PMSSW 1610 FEW200
BKN250
13-1-3 53% 30.241026.70
KDSM 022254Z 21014KT 10SM FEW200 BKN250 M11/M18 A3024 RMK AO2 SLP267 T11061183
4:50 PMM10 CLR
% 30.25
KDSM 022250Z AUTO /////KT 10SM CLR M11/M18 A3025 RMK T11101180 MADISHF
4:45 PMM10 CLR
% 30.25
KDSM 022245Z AUTO /////KT 10SM CLR M11/M18 A3025 RMK T11101180 MADISHF
4:40 PMM10 CLR
% 30.25
KDSM 022240Z AUTO /////KT 10SM CLR M11/M18 A3025 RMK T11101180 MADISHF
4:35 PMM10 CLR
% 30.26
KDSM 022235Z AUTO /////KT 10SM CLR M11/M18 A3026 RMK T11101180 MADISHF
4:30 PMSSW 1810 CLR
% 30.27
KDSM 022230Z AUTO 21016KT 10SM CLR M11/M18 A3027 RMK T11101180 MADISHF
4:25 PMM10 CLR
% 30.27
KDSM 022225Z AUTO /////KT 10SM CLR M11/M18 A3027 RMK T11101180 MADISHF
4:20 PMSSW 1310 CLR
% 30.28
KDSM 022220Z AUTO 21011KT 10SM CLR M11/M18 A3028 RMK T11101180 MADISHF
4:15 PMM10 CLR
% 30.28
KDSM 022215Z AUTO /////KT 10SM CLR M11/M19 A3028 RMK T11101190 MADISHF
4:10 PMSSW 1710 CLR
% 30.28
KDSM 022210Z AUTO 21015KT 10SM CLR M11/M19 A3028 RMK T11101190 MADISHF
4:05 PMM10 CLR
% 30.28
KDSM 022205Z AUTO /////KT 10SM CLR M10/M19 A3028 RMK T11001190 MADISHF
4:00 PMM10 CLR
% 30.29
KDSM 022200Z AUTO /////KT 10SM CLR M10/M19 A3029 RMK T11001190 MADISHF
3:55 PMM10 CLR
% 30.29
KDSM 022155Z AUTO /////KT 10SM CLR M11/M18 A3029 RMK T11101180 MADISHF
3:54 PMSSW 16G 2210 FEW190
SCT250
13-1-3 53% 30.291028.40
KDSM 022154Z 21014G19KT 10SM FEW190 SCT250 M11/M18 A3029 RMK AO2 SLP284 T11061183
3:50 PMSSW 1610 CLR
% 30.3
KDSM 022150Z AUTO 21014KT 10SM CLR M11/M18 A3030 RMK T11101180 MADISHF
3:45 PMSSW 1410 CLR
% 30.3
KDSM 022145Z AUTO 21012KT 10SM CLR M11/M18 A3030 RMK T11101180 MADISHF
3:40 PMSW 1610 CLR
% 30.31
KDSM 022140Z AUTO 22014KT 10SM CLR M10/M19 A3031 RMK T11001190 MADISHF
3:35 PMSW 1610 CLR
% 30.32
KDSM 022135Z AUTO 22014KT 10SM CLR M10/M18 A3032 RMK T11001180 MADISHF
3:30 PMSW 1410 CLR
% 30.32
KDSM 022130Z AUTO 23012KT 10SM CLR M10/M19 A3032 RMK T11001190 MADISHF
3:25 PMSW 1810 CLR
% 30.33
KDSM 022125Z AUTO 23016KT 10SM CLR M10/M19 A3033 RMK T11001190 MADISHF
3:20 PMM10 CLR
% 30.33
KDSM 022120Z AUTO /////KT 10SM CLR M10/M19 A3033 RMK T11001190 MADISHF
3:15 PMSW 1710 CLR
% 30.33
KDSM 022115Z AUTO 23015KT 10SM CLR M10/M18 A3033 RMK T11001180 MADISHF
3:10 PMSW 1610 CLR
% 30.34
KDSM 022110Z AUTO 23014KT 10SM CLR M10/M18 A3034 RMK T11001180 MADISHF
3:05 PMWSW 1610 CLR
% 30.34
KDSM 022105Z AUTO 24014KT 10SM CLR M10/M19 A3034 RMK T11001190 MADISHF
3:00 PMSW 1810 CLR
% 30.32
KDSM 022100Z AUTO 22016KT 10SM CLR M10/M18 A3032 RMK T11001180 MADISHF
2:55 PMM10 CLR
% 30.33
KDSM 022055Z AUTO /////KT 10SM CLR M10/M18 A3033 RMK T11001180 MADISHF
2:54 PMSSW 1610 FEW250
14-1-2 51% 30.331029.80
KDSM 022054Z 21014KT 10SM FEW250 M10/M18 A3033 RMK AO2 SLP298 T11001183 56051
2:50 PMSW 2010 % 30.34
KDSM 022050Z AUTO 23017KT 10SM M10/M18 A3034 RMK T11001180 MADISHF
2:45 PMSW 1410 CLR
% 30.35
KDSM 022045Z AUTO 23012KT 10SM CLR M11/M18 A3035 RMK T11101180 MADISHF
2:40 PMSW 1410 CLR
% 30.35
KDSM 022040Z AUTO 22012KT 10SM CLR M11/M18 A3035 RMK T11101180 MADISHF
2:35 PMSW 1610 CLR
% 30.35
KDSM 022035Z AUTO 23014KT 10SM CLR M11/M19 A3035 RMK T11101190 MADISHF
2:30 PMM10 CLR
% 30.34
KDSM 022030Z AUTO /////KT 10SM CLR M11/M19 A3034 RMK T11101190 MADISHF
2:25 PMSW 1810 CLR
% 30.34
KDSM 022025Z AUTO 22016KT 10SM CLR M11/M19 A3034 RMK T11101190 MADISHF
2:20 PMM10 CLR
% 30.35
KDSM 022020Z AUTO /////KT 10SM CLR M11/M19 A3035 RMK T11101190 MADISHF
2:15 PMSW 1510 CLR
% 30.36
KDSM 022015Z AUTO 22013KT 10SM CLR M11/M19 A3036 RMK T11101190 MADISHF
2:10 PMM10 CLR
% 30.36
KDSM 022010Z AUTO /////KT 10SM CLR M11/M19 A3036 RMK T11101190 MADISHF
2:05 PMSW 1410 CLR
% 30.36
KDSM 022005Z AUTO 22012KT 10SM CLR M11/M19 A3036 RMK T11101190 MADISHF
2:00 PMSW 1610 CLR
% 30.37
KDSM 022000Z AUTO 22014KT 10SM CLR M11/M19 A3037 RMK T11101190 MADISHF
1:55 PMSW 1510 CLR
% 30.37
KDSM 021955Z AUTO 22013KT 10SM CLR M11/M19 A3037 RMK T11101190 MADISHF
1:54 PMSW 1510 FEW250
12-2-4 53% 30.371031.10
KDSM 021954Z 22013KT 10SM FEW250 M11/M19 A3037 RMK AO2 SLP311 T11111189
1:50 PMM10 % 30.37
KDSM 021950Z AUTO /////KT 10SM M11/M19 A3037 RMK T11101190 MADISHF
1:45 PMSW 1610 CLR
% 30.38
KDSM 021945Z AUTO 23014KT 10SM CLR M11/M19 A3038 RMK T11101190 MADISHF
1:40 PMWSW 1710 CLR
% 30.39
KDSM 021940Z AUTO 24015KT 10SM CLR M11/M19 A3039 RMK T11101190 MADISHF
1:35 PMM10 CLR
% 30.4
KDSM 021935Z AUTO /////KT 10SM CLR M11/M19 A3040 RMK T11101190 MADISHF
1:30 PMM10 CLR
% 30.4
KDSM 021930Z AUTO /////KT 10SM CLR M11/M19 A3040 RMK T11101190 MADISHF
1:25 PMM10 CLR
% 30.4
KDSM 021925Z AUTO /////KT 10SM CLR M11/M19 A3040 RMK T11101190 MADISHF
1:20 PMM10 CLR
% 30.4
KDSM 021920Z AUTO /////KT 10SM CLR M11/M19 A3040 RMK T11101190 MADISHF
1:15 PMM10 CLR
% 30.4
KDSM 021915Z AUTO /////KT 10SM CLR M11/M19 A3040 RMK T11101190 MADISHF
1:10 PMSW 1710 CLR
% 30.4
KDSM 021910Z AUTO 23015KT 10SM CLR M12/M19 A3040 RMK T11201190 MADISHF
1:05 PMSW 1710 CLR
% 30.4
KDSM 021905Z AUTO 23015KT 10SM CLR M12/M19 A3040 RMK T11201190 MADISHF
1:00 PMSW 1710 CLR
% 30.41
KDSM 021900Z AUTO 23015KT 10SM CLR M12/M19 A3041 RMK T11201190 MADISHF
12:55 PMM10 CLR
% 30.42
KDSM 021855Z AUTO /////KT 10SM CLR M12/M19 A3042 RMK T11201190 MADISHF
12:54 PMSW 1610 FEW250
10-3-7 55% 30.421032.70
KDSM 021854Z 23014KT 10SM FEW250 M12/M19 A3042 RMK AO2 SLP327 T11221194
12:50 PMSW 2010 % 30.42
KDSM 021850Z AUTO 23017KT 10SM M12/M20 A3042 RMK T11201200 MADISHF
12:45 PMM10 CLR
% 30.43
KDSM 021845Z AUTO /////KT 10SM CLR M12/M19 A3043 RMK T11201190 MADISHF
12:40 PMM10 CLR
% 30.44
KDSM 021840Z AUTO /////KT 10SM CLR M12/M19 A3044 RMK T11201190 MADISHF
12:35 PMM10 CLR
% 30.45
KDSM 021835Z AUTO /////KT 10SM CLR M13/M20 A3045 RMK T11301200 MADISHF
12:30 PMSW 2010 CLR
% 30.45
KDSM 021830Z AUTO 23017KT 10SM CLR M13/M20 A3045 RMK T11301200 MADISHF
12:25 PMM10 CLR
% 30.46
KDSM 021825Z AUTO /////KT 10SM CLR M13/M20 A3046 RMK T11301200 MADISHF
12:20 PMM10 CLR
% 30.47
KDSM 021820Z AUTO /////KT 10SM CLR M13/M20 A3047 RMK T11301200 MADISHF
12:15 PMWSW 1410 CLR
% 30.48
KDSM 021815Z AUTO 24012KT 10SM CLR M13/M20 A3048 RMK T11301200 MADISHF
12:10 PMWSW 1610 CLR
% 30.47
KDSM 021810Z AUTO 24014KT 10SM CLR M13/M21 A3047 RMK T11301210 MADISHF
12:05 PMWSW 1710 CLR
% 30.48
KDSM 021805Z AUTO 24015KT 10SM CLR M13/M21 A3048 RMK T11301210 MADISHF
12:00 PMWSW 1710 CLR
% 30.48
KDSM 021800Z AUTO 24015KT 10SM CLR M13/M21 A3048 RMK T11301210 MADISHF
11:55 AMWSW 1710 CLR
% 30.49
KDSM 021755Z AUTO 24015KT 10SM CLR M13/M21 A3049 RMK T11301210 MADISHF
11:54 AMWSW 1610 FEW250
8-5-10 8 -15 54% 30.491035.10
KDSM 021754Z 24014KT 10SM FEW250 M13/M21 A3049 RMK AO2 SLP351 4/003 933003 T11331206 11133 21261 58034
11:50 AMWSW 1610 % 30.49
KDSM 021750Z AUTO 24014KT 10SM M14/M21 A3049 RMK T11401210 4/003 933003 MADISHF
11:45 AMSW 1510 CLR
% 30.5
KDSM 021745Z AUTO 23013KT 10SM CLR M14/M21 A3050 RMK T11401210 4/003 933003 MADISHF
11:40 AMWSW 1510 CLR
% 30.5
KDSM 021740Z AUTO 24013KT 10SM CLR M14/M21 A3050 RMK T11401210 4/003 933003 MADISHF
11:35 AMM10 CLR
% 30.51
KDSM 021735Z AUTO /////KT 10SM CLR M14/M22 A3051 RMK T11401220 4/003 933003 MADISHF
11:30 AMSW 1410 CLR
% 30.51
KDSM 021730Z AUTO 23012KT 10SM CLR M14/M22 A3051 RMK T11401220 MADISHF
11:25 AMSW 1010 CLR
% 30.52
KDSM 021725Z AUTO 23009KT 10SM CLR M15/M22 A3052 RMK T11501220 MADISHF
11:20 AMSW 1410 CLR
% 30.53
KDSM 021720Z AUTO 23012KT 10SM CLR M15/M22 A3053 RMK T11501220 MADISHF
11:15 AMSW 1210 CLR
% 30.53
KDSM 021715Z AUTO 23010KT 10SM CLR M16/M22 A3053 RMK T11601220 MADISHF
11:10 AMSW 1310 CLR
% 30.53
KDSM 021710Z AUTO 23011KT 10SM CLR M16/M22 A3053 RMK T11601220 MADISHF
11:05 AMWSW 1210 CLR
% 30.54
KDSM 021705Z AUTO 24010KT 10SM CLR M16/M23 A3054 RMK T11601230 MADISHF
11:00 AMWSW 1310 CLR
% 30.55
KDSM 021700Z AUTO 24011KT 10SM CLR M16/M23 A3055 RMK T11601230 MADISHF
10:55 AMWSW 1210 CLR
% 30.55
KDSM 021655Z AUTO 24010KT 10SM CLR M16/M23 A3055 RMK T11601230 MADISHF
10:54 AMWSW 1010 CLR
2-10-14 57% 30.551037.30
KDSM 021654Z 24009KT 10SM CLR M17/M23 A3055 RMK AO2 SLP373 T11671233
10:50 AMSW 1210 CLR
% 30.55
KDSM 021650Z AUTO 23010KT 10SM CLR M17/M23 A3055 RMK T11701230 MADISHF
10:45 AMSW 1010 CLR
% 30.56
KDSM 021645Z AUTO 23009KT 10SM CLR M17/M23 A3056 RMK T11701230 MADISHF
10:40 AMWSW 1210 CLR
% 30.56
KDSM 021640Z AUTO 24010KT 10SM CLR M17/M23 A3056 RMK T11701230 MADISHF
10:35 AMSW 1210 CLR
% 30.56
KDSM 021635Z AUTO 23010KT 10SM CLR M17/M24 A3056 RMK T11701240 MADISHF
10:30 AMSW 1310 CLR
% 30.56
KDSM 021630Z AUTO 23011KT 10SM CLR M17/M24 A3056 RMK T11701240 MADISHF
10:25 AMSW 1010 CLR
% 30.57
KDSM 021625Z AUTO 23009KT 10SM CLR M17/M24 A3057 RMK T11701240 MADISHF
10:20 AMWSW 1310 CLR
% 30.57
KDSM 021620Z AUTO 24011KT 10SM CLR M17/M24 A3057 RMK T11701240 MADISHF
10:15 AMSW 1210 CLR
% 30.57
KDSM 021615Z AUTO 23010KT 10SM CLR M18/M24 A3057 RMK T11801240 MADISHF
10:10 AMWSW 1010 CLR
% 30.57
KDSM 021610Z AUTO 24009KT 10SM CLR M18/M24 A3057 RMK T11801240 MADISHF
10:05 AMSW 910 CLR
% 30.58
KDSM 021605Z AUTO 23008KT 10SM CLR M19/M24 A3058 RMK T11901240 MADISHF
10:00 AMSW 1010 CLR
% 30.58
KDSM 021600Z AUTO 23009KT 10SM CLR M19/M25 A3058 RMK T11901250 MADISHF
9:55 AMSW 910 CLR
% 30.58
KDSM 021555Z AUTO 23008KT 10SM CLR M19/M25 A3058 RMK T11901250 MADISHF
9:54 AMSW 910 CLR
-3-13-19 61% 30.581038.60
KDSM 021554Z 23008KT 10SM CLR M19/M25 A3058 RMK AO2 SLP386 T11941250
9:50 AMSW 910 CLR
% 30.58
KDSM 021550Z AUTO 23008KT 10SM CLR M20/M25 A3058 RMK T12001250 MADISHF
9:45 AMSW 1010 CLR
% 30.58
KDSM 021545Z AUTO 23009KT 10SM CLR M20/M26 A3058 RMK T12001260 MADISHF
9:40 AMSW 810 CLR
% 30.58
KDSM 021540Z AUTO 23007KT 10SM CLR M21/M26 A3058 RMK T12101260 MADISHF
9:35 AMSW 910 CLR
% 30.58
KDSM 021535Z AUTO 22008KT 10SM CLR M21/M26 A3058 RMK T12101260 MADISHF
9:30 AMSW 910 CLR
% 30.58
KDSM 021530Z AUTO 22008KT 10SM CLR M21/M26 A3058 RMK T12101260 MADISHF
9:25 AMSW 910 CLR
% 30.58
KDSM 021525Z AUTO 22008KT 10SM CLR M22/M26 A3058 RMK T12201260 MADISHF
9:20 AMSW 810 CLR
% 30.58
KDSM 021520Z AUTO 22007KT 10SM CLR M22/M26 A3058 RMK T12201260 MADISHF
9:15 AMSW 810 CLR
% 30.59
KDSM 021515Z AUTO 22007KT 10SM CLR M22/M26 A3059 RMK T12201260 MADISHF
9:10 AMSW 810 CLR
% 30.59
KDSM 021510Z AUTO 22007KT 10SM CLR M22/M26 A3059 RMK T12201260 MADISHF
9:05 AMSW 610 CLR
% 30.59
KDSM 021505Z AUTO 22005KT 10SM CLR M23/M26 A3059 RMK T12301260 MADISHF
9:00 AMSSW 710 CLR
% 30.59
KDSM 021500Z AUTO 21006KT 10SM CLR M23/M27 A3059 RMK T12301270 MADISHF
8:55 AMSSW 810 CLR
% 30.59
KDSM 021455Z AUTO 21007KT 10SM CLR M23/M27 A3059 RMK T12301270 MADISHF
8:54 AMSSW 810 CLR
-9-16-25 70% 30.5910390
KDSM 021454Z 21007KT 10SM CLR M23/M27 A3059 RMK AO2 SLP390 T12281267 58022
8:50 AMSSW 710 CLR
% 30.59
KDSM 021450Z AUTO 21006KT 10SM CLR M23/M27 A3059 RMK T12301270 MADISHF
8:45 AMSSW 710 CLR
% 30.6
KDSM 021445Z AUTO 21006KT 10SM CLR M23/M27 A3060 RMK T12301270 MADISHF
8:40 AMSW 710 CLR
% 30.6
KDSM 021440Z AUTO 22006KT 10SM CLR M23/M27 A3060 RMK T12301270 MADISHF
8:35 AMSW 610 CLR
% 30.61
KDSM 021435Z AUTO 22005KT 10SM CLR M24/M27 A3061 RMK T12401270 MADISHF
8:30 AMSW 510 CLR
% 30.61
KDSM 021430Z AUTO 22004KT 10SM CLR M24/M27 A3061 RMK T12401270 MADISHF
8:25 AMSW 610 CLR
% 30.61
KDSM 021425Z AUTO 22005KT 10SM CLR M24/M27 A3061 RMK T12401270 MADISHF
8:20 AMSSW 610 CLR
% 30.61
KDSM 021420Z AUTO 21005KT 10SM CLR M24/M27 A3061 RMK T12401270 MADISHF
8:15 AMSW 710 CLR
% 30.61
KDSM 021415Z AUTO 22006KT 10SM CLR M24/M27 A3061 RMK T12401270 MADISHF
8:10 AMSW 710 CLR
% 30.61
KDSM 021410Z AUTO 22006KT 10SM CLR M24/M27 A3061 RMK T12401270 MADISHF
8:05 AMSW 810 CLR
% 30.61
KDSM 021405Z AUTO 22007KT 10SM CLR M24/M28 A3061 RMK T12401280 MADISHF
8:00 AMSW 710 CLR
% 30.61
KDSM 021400Z AUTO 22006KT 10SM CLR M24/M28 A3061 RMK T12401280 MADISHF
7:55 AMSSW 810 CLR
% 30.61
KDSM 021355Z AUTO 21007KT 10SM CLR M25/M28 A3061 RMK T12501280 MADISHF
7:54 AMSSW 810 CLR
-13-19-30 74% 30.611039.80
KDSM 021354Z 21007KT 10SM CLR M25/M28 A3061 RMK AO2 SLP398 T12501283
7:50 AMSSW 810 CLR
% 30.61
KDSM 021350Z AUTO 21007KT 10SM CLR M25/M28 A3061 RMK T12501280 MADISHF
7:45 AMSSW 910 CLR
% 30.61
KDSM 021345Z AUTO 21008KT 10SM CLR M25/M28 A3061 RMK T12501280 MADISHF
7:40 AMSSW 810 CLR
% 30.62
KDSM 021340Z AUTO 21007KT 10SM CLR M25/M28 A3062 RMK T12501280 MADISHF
7:35 AMSSW 710 CLR
% 30.62
KDSM 021335Z AUTO 21006KT 10SM CLR M25/M28 A3062 RMK T12501280 MADISHF
7:30 AMSSW 710 CLR
% 30.63
KDSM 021330Z AUTO 21006KT 10SM CLR M25/M28 A3063 RMK T12501280 MADISHF
7:25 AMSSW 610 CLR
% 30.63
KDSM 021325Z AUTO 21005KT 10SM CLR M25/M28 A3063 RMK T12501280 MADISHF
7:20 AMSSW 510 CLR
% 30.63
KDSM 021320Z AUTO 21004KT 10SM CLR M26/M28 A3063 RMK T12601280 MADISHF
7:15 AMSW 610 CLR
% 30.63
KDSM 021315Z AUTO 22005KT 10SM CLR M26/M29 A3063 RMK T12601290 MADISHF
7:10 AMSW 710 CLR
% 30.63
KDSM 021310Z AUTO 22006KT 10SM CLR M26/M29 A3063 RMK T12601290 MADISHF
7:05 AMSW 610 CLR
% 30.64
KDSM 021305Z AUTO 22005KT 10SM CLR M26/M29 A3064 RMK T12601290 MADISHF
7:00 AMSW 610 CLR
% 30.64
KDSM 021300Z AUTO 22005KT 10SM CLR M26/M29 A3064 RMK T12601290 MADISHF
6:55 AMSW 710 CLR
% 30.64
KDSM 021255Z AUTO 22006KT 10SM CLR M26/M29 A3064 RMK T12601290 MADISHF
6:54 AMSW 710 CLR
-14-20-30 74% 30.641040.80
KDSM 021254Z 22006KT 10SM CLR M26/M29 A3064 RMK AO2 SLP408 T12561289
6:50 AMSW 710 CLR
% 30.64
KDSM 021250Z AUTO 22006KT 10SM CLR M26/M29 A3064 RMK T12601290 MADISHF
6:45 AMSW 710 CLR
% 30.64
KDSM 021245Z AUTO 23006KT 10SM CLR M26/M29 A3064 RMK T12601290 MADISHF
6:40 AMSW 710 CLR
% 30.64
KDSM 021240Z AUTO 23006KT 10SM CLR M26/M29 A3064 RMK T12601290 MADISHF
6:35 AMSW 710 CLR
% 30.64
KDSM 021235Z AUTO 22006KT 10SM CLR M26/M29 A3064 RMK T12601290 MADISHF
6:30 AMSW 810 CLR
% 30.64
KDSM 021230Z AUTO 22007KT 10SM CLR M26/M29 A3064 RMK T12601290 MADISHF
6:25 AMSW 810 CLR
% 30.64
KDSM 021225Z AUTO 22007KT 10SM CLR M26/M29 A3064 RMK T12601290 MADISHF
6:20 AMSW 710 CLR
% 30.65
KDSM 021220Z AUTO 22006KT 10SM CLR M26/M29 A3065 RMK T12601290 MADISHF
6:15 AMSW 710 CLR
% 30.65
KDSM 021215Z AUTO 23006KT 10SM CLR M26/M29 A3065 RMK T12601290 MADISHF
6:10 AMSW 810 CLR
% 30.65
KDSM 021210Z AUTO 22007KT 10SM CLR M26/M29 A3065 RMK T12601290 MADISHF
6:05 AMSSW 810 CLR
% 30.65
KDSM 021205Z AUTO 21007KT 10SM CLR M26/M29 A3065 RMK T12601290 MADISHF
6:00 AMSSW 710 CLR
% 30.65
KDSM 021200Z AUTO 21006KT 10SM CLR M26/M29 A3065 RMK T12601290 MADISHF
5:55 AMSW 610 CLR
% 30.66
KDSM 021155Z AUTO 22005KT 10SM CLR M26/M29 A3066 RMK T12601290 MADISHF
5:54 AMSW 710 CLR
-15-21-31 -11 -15 74% 30.661041.40
KDSM 021154Z 22006KT 10SM CLR M26/M29 A3066 RMK AO2 SLP414 4/003 T12611294 11239 21261 58023
5:50 AMSW 710 CLR
% 30.66
KDSM 021150Z AUTO 22006KT 10SM CLR M26/M29 A3066 RMK T12601290 4/003 MADISHF
5:45 AMSW 710 CLR
% 30.66
KDSM 021145Z AUTO 22006KT 10SM CLR M26/M29 A3066 RMK T12601290 MADISHF
5:40 AMSW 610 CLR
% 30.67
KDSM 021140Z AUTO 22005KT 10SM CLR M26/M29 A3067 RMK T12601290 MADISHF
5:35 AMSW 610 CLR
% 30.67
KDSM 021135Z AUTO 22005KT 10SM CLR M26/M29 A3067 RMK T12601290 MADISHF
5:30 AMSW 510 CLR
% 30.68
KDSM 021130Z AUTO 22004KT 10SM CLR M26/M29 A3068 RMK T12601290 MADISHF
5:25 AMSW 510 CLR
% 30.68
KDSM 021125Z AUTO 22004KT 10SM CLR M26/M29 A3068 RMK T12601290 MADISHF
5:20 AMSW 510 CLR
% 30.68
KDSM 021120Z AUTO 22004KT 10SM CLR M26/M29 A3068 RMK T12601290 MADISHF
5:15 AMSW 510 CLR
% 30.68
KDSM 021115Z AUTO 22004KT 10SM CLR M26/M29 A3068 RMK T12601290 MADISHF
5:10 AMSW 610 CLR
% 30.68
KDSM 021110Z AUTO 23005KT 10SM CLR M26/M29 A3068 RMK T12601290 MADISHF
5:05 AMSW 710 CLR
% 30.68
KDSM 021105Z AUTO 23006KT 10SM CLR M26/M29 A3068 RMK T12601290 MADISHF
5:00 AMWSW 710 CLR
% 30.69
KDSM 021100Z AUTO 24006KT 10SM CLR M26/M29 A3069 RMK T12601290 MADISHF
4:55 AMSW 710 CLR
% 30.69
KDSM 021055Z AUTO 23006KT 10SM CLR M26/M29 A3069 RMK T12601290 MADISHF
4:54 AMSW 710 CLR
-15-21-31 74% 30.691042.30
KDSM 021054Z 23006KT 10SM CLR M26/M29 A3069 RMK AO2 SLP423 T12611294
4:50 AMWSW 610 CLR
% 30.69
KDSM 021050Z AUTO 24005KT 10SM CLR M26/M29 A3069 RMK T12601290 MADISHF
4:45 AMWSW 610 CLR
% 30.69
KDSM 021045Z AUTO 25005KT 10SM CLR M26/M29 A3069 RMK T12601290 MADISHF
4:40 AMWSW 610 CLR
% 30.69
KDSM 021040Z AUTO 25005KT 10SM CLR M26/M29 A3069 RMK T12601290 MADISHF
4:35 AMWSW 310 CLR
% 30.69
KDSM 021035Z AUTO 25003KT 10SM CLR M26/M29 A3069 RMK T12601290 MADISHF
4:30 AMW 310 CLR
%
KDSM 021030Z AUTO 26003KT 10SM CLR M26/M28 RMK T12601280 MADISHF
4:25 AMW 310 CLR
%
KDSM 021025Z AUTO 27003KT 10SM CLR M26/M28 RMK T12601280 MADISHF
4:20 AMN 010 CLR
%
KDSM 021020Z AUTO 00000KT 10SM CLR M26/M28 RMK T12601280 MADISHF
4:15 AMW 310 CLR
%
KDSM 021015Z AUTO 28003KT 10SM CLR M26/M29 RMK T12601290 MADISHF
4:10 AMW 610 CLR
%
KDSM 021010Z AUTO 28005KT 10SM CLR M25/M28 RMK T12501280 MADISHF
4:05 AMWNW 810 CLR
%
KDSM 021005Z AUTO 29007KT 10SM CLR M26/M29 RMK T12601290 MADISHF
4:00 AMW 710 CLR
%
KDSM 021000Z AUTO 28006KT 10SM CLR M26/M29 RMK T12601290 MADISHF
3:55 AMW 810 CLR
%
KDSM 020955Z AUTO 27007KT 10SM CLR M26/M29 RMK T12601290 MADISHF
3:54 AMW 810 CLR
-14-20-31 74% 30.711043.20
KDSM 020954Z 27007KT 10SM CLR M26/M29 A3071 RMK AO2 SLP432 T12561289
3:50 AMW 810 CLR
% 30.72
KDSM 020950Z AUTO 27007KT 10SM CLR M26/M29 A3072 RMK T12601290 MADISHF
3:45 AMW 810 CLR
% 30.72
KDSM 020945Z AUTO 26007KT 10SM CLR M26/M29 A3072 RMK T12601290 MADISHF
3:40 AMWSW 710 CLR
% 30.72
KDSM 020940Z AUTO 25006KT 10SM CLR M26/M29 A3072 RMK T12601290 MADISHF
3:35 AMW 510 CLR
% 30.72
KDSM 020935Z AUTO 27004KT 10SM CLR M26/M29 A3072 RMK T12601290 MADISHF
3:30 AMWSW 510 CLR
% 30.72
KDSM 020930Z AUTO 25004KT 10SM CLR M26/M29 A3072 RMK T12601290 MADISHF
3:25 AMW 510 CLR
% 30.72
KDSM 020925Z AUTO 26004KT 10SM CLR M26/M29 A3072 RMK T12601290 MADISHF
3:20 AMWSW 610 CLR
% 30.72
KDSM 020920Z AUTO 25005KT 10SM CLR M26/M29 A3072 RMK T12601290 MADISHF
3:15 AMWSW 610 CLR
% 30.72
KDSM 020915Z AUTO 25005KT 10SM CLR M26/M29 A3072 RMK T12601290 MADISHF
3:10 AMWSW 510 CLR
% 30.72
KDSM 020910Z AUTO 25004KT 10SM CLR M26/M29 A3072 RMK T12601290 MADISHF
3:05 AMWSW 510 CLR
% 30.72
KDSM 020905Z AUTO 25004KT 10SM CLR M26/M29 A3072 RMK T12601290 MADISHF
3:00 AMW 610 CLR
% 30.72
KDSM 020900Z AUTO 26005KT 10SM CLR M26/M29 A3072 RMK T12601290 MADISHF
2:55 AMW 610 CLR
% 30.73
KDSM 020855Z AUTO 26005KT 10SM CLR M26/M29 A3073 RMK T12601290 MADISHF
2:54 AMW 610 CLR
-15-20-29 77% 30.731043.60
KDSM 020854Z 26005KT 10SM CLR M26/M29 A3073 RMK AO2 SLP436 T12611289 55007
2:50 AMW 510 CLR
% 30.73
KDSM 020850Z AUTO 26004KT 10SM CLR M26/M28 A3073 RMK T12601280 MADISHF
2:45 AMW 610 CLR
% 30.73
KDSM 020845Z AUTO 26005KT 10SM CLR M25/M28 A3073 RMK T12501280 MADISHF
2:40 AMW 710 CLR
% 30.73
KDSM 020840Z AUTO 26006KT 10SM CLR M26/M28 A3073 RMK T12601280 MADISHF
2:35 AMW 710 CLR
% 30.72
KDSM 020835Z AUTO 27006KT 10SM CLR M25/M28 A3072 RMK T12501280 MADISHF
2:30 AMW 710 CLR
% 30.72
KDSM 020830Z AUTO 27006KT 10SM CLR M25/M28 A3072 RMK T12501280 MADISHF
2:25 AMW 610 CLR
% 30.72
KDSM 020825Z AUTO 28005KT 10SM CLR M26/M28 A3072 RMK T12601280 MADISHF
2:20 AMWNW 610 CLR
% 30.72
KDSM 020820Z AUTO 29005KT 10SM CLR M26/M28 A3072 RMK T12601280 MADISHF
2:15 AMW 610 CLR
% 30.72
KDSM 020815Z AUTO 28005KT 10SM CLR M26/M29 A3072 RMK T12601290 MADISHF
2:10 AMW 610 CLR
% 30.72
KDSM 020810Z AUTO 27005KT 10SM CLR M26/M29 A3072 RMK T12601290 MADISHF
2:05 AMW 610 CLR
% 30.72
KDSM 020805Z AUTO 28005KT 10SM CLR M26/M29 A3072 RMK T12601290 MADISHF
2:00 AMW 710 CLR
% 30.72
KDSM 020800Z AUTO 28006KT 10SM CLR M26/M28 A3072 RMK T12601280 MADISHF
1:55 AMW 710 CLR
% 30.72
KDSM 020755Z AUTO 28006KT 10SM CLR M26/M28 A3072 RMK T12601280 MADISHF
1:54 AMW 710 CLR
-14-19-30 78% 30.721043.30
KDSM 020754Z 28006KT 10SM CLR M26/M28 A3072 RMK AO2 SLP433 T12561283
1:50 AMWNW 810 CLR
% 30.72
KDSM 020750Z AUTO 29007KT 10SM CLR M26/M28 A3072 RMK T12601280 MADISHF
1:45 AMWNW 810 CLR
% 30.72
KDSM 020745Z AUTO 29007KT 10SM CLR M25/M28 A3072 RMK T12501280 MADISHF
1:40 AMWNW 610 CLR
% 30.72
KDSM 020740Z AUTO 30005KT 10SM CLR M26/M28 A3072 RMK T12601280 MADISHF
1:35 AMWNW 510 CLR
% 30.72
KDSM 020735Z AUTO 30004KT 10SM CLR M26/M29 A3072 RMK T12601290 MADISHF
1:30 AMWNW 310 CLR
% 30.72
KDSM 020730Z AUTO 30003KT 10SM CLR M26/M29 A3072 RMK T12601290 MADISHF
1:25 AMWSW 510 CLR
%
KDSM 020725Z AUTO 25004KT 10SM CLR M26/M29 RMK T12601290 MADISHF
1:20 AMWSW 610 CLR
% 30.72
KDSM 020720Z AUTO 25005KT 10SM CLR M26/M29 A3072 RMK T12601290 MADISHF
1:15 AMWSW 710 CLR
%
KDSM 020715Z AUTO 25006KT 10SM CLR M26/M29 RMK T12601290 MADISHF
1:10 AMWSW 810 CLR
%
KDSM 020710Z AUTO 24007KT 10SM CLR M26/M29 RMK T12601290 MADISHF
1:05 AMWSW 810 CLR
%
KDSM 020705Z AUTO 24007KT 10SM CLR M26/M28 RMK T12601280 MADISHF
1:00 AMWSW 810 CLR
% 30.72
KDSM 020700Z AUTO 24007KT 10SM CLR M26/M29 A3072 RMK T12601290 MADISHF
12:55 AMWSW 710 CLR
% 30.72
KDSM 020655Z AUTO 24006KT 10SM CLR M26/M29 A3072 RMK T12601290 MADISHF
12:54 AMWSW 710 CLR
-14-20-30 74% 30.721043.60
KDSM 020654Z 24006KT 10SM CLR M26/M29 A3072 RMK AO2 SLP436 T12561289
12:50 AMWSW 610 CLR
% 30.73
KDSM 020650Z AUTO 25005KT 10SM CLR M26/M28 A3073 RMK T12601280 MADISHF
12:45 AMWSW 710 CLR
% 30.73
KDSM 020645Z AUTO 24006KT 10SM CLR M26/M28 A3073 RMK T12601280 MADISHF
12:40 AMWSW 710 CLR
% 30.73
KDSM 020640Z AUTO 25006KT 10SM CLR M26/M28 A3073 RMK T12601280 MADISHF
12:35 AMWSW 710 CLR
% 30.73
KDSM 020635Z AUTO 24006KT 10SM CLR M26/M29 A3073 RMK T12601290 MADISHF
12:30 AMWSW 510 CLR
% 30.73
KDSM 020630Z AUTO 25004KT 10SM CLR M26/M28 A3073 RMK T12601280 MADISHF
12:25 AMWSW 510 CLR
% 30.73
KDSM 020625Z AUTO 25004KT 10SM CLR M24/M27 A3073 RMK T12401270 MADISHF
12:20 AMN 010 CLR
% 30.74
KDSM 020620Z AUTO 00000KT 10SM CLR M24/M28 A3074 RMK T12401280 MADISHF
12:15 AMN 010 CLR
% 30.74
KDSM 020615Z AUTO 00000KT 10SM CLR M24/M28 A3074 RMK T12401280 MADISHF
12:10 AMN 010 CLR
% 30.74
KDSM 020610Z AUTO 00000KT 10SM CLR M24/M28 A3074 RMK T12401280 MADISHF
12:05 AMN 010 CLR
% 30.74
KDSM 020605Z AUTO 00000KT 10SM CLR M24/M27 A3074 RMK T12401270 MADISHF
12:00 AMN 010 CLR
% 30.74
KDSM 020600Z AUTO 00000KT 10SM CLR M24/M27 A3074 RMK T12401270 MADISHF

Data Notes